createdAt,value
2017-12-31T00:00:02.280Z,9.90
2017-12-31T00:02:30.433Z,9.90
2017-12-31T00:04:58.838Z,9.80
2017-12-31T00:07:27.281Z,9.80
2017-12-31T00:09:55.694Z,9.80
2017-12-31T00:12:24.078Z,9.90
2017-12-31T00:14:53.278Z,9.90
2017-12-31T00:17:21.681Z,9.90
2017-12-31T00:19:50.864Z,9.80
2017-12-31T00:22:19.227Z,9.80
2017-12-31T00:24:47.657Z,9.80
2017-12-31T00:27:16.753Z,9.80
2017-12-31T00:29:45.125Z,9.80
2017-12-31T00:32:14.270Z,9.80
2017-12-31T00:34:42.694Z,9.80
2017-12-31T00:37:11.082Z,9.70
2017-12-31T00:39:39.472Z,9.70
2017-12-31T00:42:07.908Z,9.70
2017-12-31T00:44:36.298Z,9.70
2017-12-31T00:47:04.689Z,9.70
2017-12-31T00:49:33.847Z,9.70
2017-12-31T00:52:02.208Z,9.70
2017-12-31T00:54:31.492Z,9.60
2017-12-31T00:56:59.841Z,9.60
2017-12-31T00:59:29.079Z,9.70
2017-12-31T01:01:57.432Z,9.70
2017-12-31T01:04:26.548Z,9.60
2017-12-31T01:06:54.920Z,9.70
2017-12-31T01:09:23.267Z,9.60
2017-12-31T01:11:51.593Z,9.70
2017-12-31T01:14:19.969Z,9.70
2017-12-31T01:16:48.320Z,9.60
2017-12-31T01:19:17.440Z,9.70
2017-12-31T01:21:45.766Z,9.70
2017-12-31T01:24:14.311Z,9.60
2017-12-31T01:26:42.645Z,9.60
2017-12-31T01:29:11.014Z,9.60
2017-12-31T01:31:39.347Z,9.70
2017-12-31T01:34:07.730Z,9.70
2017-12-31T01:36:36.075Z,9.60
2017-12-31T01:39:05.205Z,9.60
2017-12-31T01:41:33.593Z,9.60
2017-12-31T01:44:01.992Z,9.70
2017-12-31T01:46:30.379Z,9.60
2017-12-31T01:51:59.398Z,9.60
2017-12-31T01:54:27.746Z,9.60
2017-12-31T01:56:56.153Z,9.60
2017-12-31T01:59:24.491Z,9.60
2017-12-31T02:01:52.889Z,9.60
2017-12-31T02:04:22.192Z,9.50
2017-12-31T02:06:50.545Z,9.60
2017-12-31T02:09:20.495Z,9.60
2017-12-31T02:11:48.859Z,9.60
2017-12-31T02:14:17.270Z,9.60
2017-12-31T02:16:52.805Z,9.70
2017-12-31T02:19:21.203Z,9.70
2017-12-31T02:21:49.612Z,9.70
2017-12-31T02:24:18.756Z,9.60
2017-12-31T02:26:47.924Z,9.60
2017-12-31T02:29:16.297Z,9.60
2017-12-31T02:31:44.682Z,9.70
2017-12-31T02:34:13.036Z,9.70
2017-12-31T02:36:41.361Z,9.70
2017-12-31T02:39:09.727Z,9.70
2017-12-31T02:41:38.068Z,9.70
2017-12-31T02:44:06.419Z,9.70
2017-12-31T02:46:34.775Z,9.70
2017-12-31T02:49:03.130Z,9.70
2017-12-31T02:51:32.235Z,9.80
2017-12-31T02:54:00.563Z,9.80
2017-12-31T02:56:28.908Z,9.80
2017-12-31T02:58:57.224Z,9.90
2017-12-31T03:01:25.585Z,9.90
2017-12-31T03:03:53.945Z,9.90
2017-12-31T03:06:22.328Z,9.80
2017-12-31T03:08:50.674Z,9.90
2017-12-31T03:11:19.796Z,9.90
2017-12-31T03:13:48.104Z,9.90
2017-12-31T03:16:17.293Z,10.10
2017-12-31T03:18:45.623Z,10.00
2017-12-31T03:21:14.752Z,10.30
2017-12-31T03:23:43.098Z,10.30
2017-12-31T03:26:12.214Z,10.50
2017-12-31T03:28:40.532Z,10.50
2017-12-31T03:31:08.853Z,10.50
2017-12-31T03:33:37.985Z,10.60
2017-12-31T03:36:06.330Z,10.60
2017-12-31T03:38:35.454Z,10.60
2017-12-31T03:41:03.806Z,10.60
2017-12-31T03:43:32.421Z,10.70
2017-12-31T03:46:00.866Z,10.70
2017-12-31T03:48:30.022Z,10.80
2017-12-31T03:50:58.424Z,10.70
2017-12-31T03:53:26.781Z,10.80
2017-12-31T03:55:55.131Z,10.70
2017-12-31T03:58:23.483Z,10.80
2017-12-31T04:00:51.860Z,10.80
2017-12-31T04:03:20.976Z,10.80
2017-12-31T04:05:49.331Z,10.80
2017-12-31T04:08:18.455Z,11.00
2017-12-31T04:10:46.830Z,10.90
2017-12-31T04:13:15.932Z,11.00
2017-12-31T04:15:44.304Z,11.00
2017-12-31T04:18:13.408Z,10.90
2017-12-31T04:20:41.772Z,10.90
2017-12-31T04:23:10.869Z,11.00
2017-12-31T04:25:39.970Z,11.00
2017-12-31T04:28:08.327Z,11.00
2017-12-31T04:30:37.436Z,10.90
2017-12-31T04:33:06.592Z,11.00
2017-12-31T04:35:34.926Z,10.90
2017-12-31T04:38:04.045Z,11.00
2017-12-31T04:40:32.356Z,11.00
2017-12-31T04:43:00.726Z,11.10
2017-12-31T04:45:29.046Z,11.10
2017-12-31T04:47:58.185Z,11.10
2017-12-31T04:50:26.495Z,11.10
2017-12-31T04:52:54.850Z,11.10
2017-12-31T04:55:23.209Z,11.20
2017-12-31T04:57:51.532Z,11.20
2017-12-31T05:00:19.881Z,11.20
2017-12-31T05:02:48.210Z,11.20
2017-12-31T05:05:16.568Z,11.20
2017-12-31T05:07:44.913Z,11.20
2017-12-31T05:10:13.255Z,11.20
2017-12-31T05:12:42.362Z,11.10
2017-12-31T05:15:11.480Z,11.20
2017-12-31T05:17:39.813Z,11.20
2017-12-31T05:20:08.167Z,11.30
2017-12-31T05:22:36.492Z,11.30
2017-12-31T05:25:05.595Z,11.30
2017-12-31T05:27:33.956Z,11.20
2017-12-31T05:30:03.076Z,11.30
2017-12-31T05:32:31.423Z,11.30
2017-12-31T05:35:00.534Z,11.40
2017-12-31T05:37:29.656Z,11.30
2017-12-31T05:39:57.983Z,11.30
2017-12-31T05:42:26.379Z,11.40
2017-12-31T05:44:54.692Z,11.40
2017-12-31T05:47:23.046Z,11.40
2017-12-31T05:49:51.430Z,11.40
2017-12-31T05:52:20.547Z,11.30
2017-12-31T05:54:48.864Z,11.30
2017-12-31T05:57:17.207Z,11.30
2017-12-31T05:59:45.529Z,11.40
2017-12-31T06:02:13.879Z,11.40
2017-12-31T06:04:42.206Z,11.50
2017-12-31T06:07:10.577Z,11.40
2017-12-31T06:09:38.912Z,11.40
2017-12-31T06:12:07.261Z,11.30
2017-12-31T06:14:36.356Z,11.30
2017-12-31T06:17:05.495Z,11.30
2017-12-31T06:19:33.824Z,11.30
2017-12-31T06:22:02.501Z,11.30
2017-12-31T06:24:30.816Z,11.40
2017-12-31T06:26:59.160Z,11.40
2017-12-31T06:29:27.479Z,11.40
2017-12-31T06:31:56.040Z,11.40
2017-12-31T06:34:25.127Z,11.40
2017-12-31T06:36:53.519Z,11.40
2017-12-31T06:39:21.880Z,11.40
2017-12-31T06:41:50.253Z,11.40
2017-12-31T06:44:18.599Z,11.50
2017-12-31T06:46:46.970Z,11.40
2017-12-31T06:49:15.300Z,11.40
2017-12-31T06:51:43.657Z,11.40
2017-12-31T06:54:11.987Z,11.40
2017-12-31T06:56:40.339Z,11.40
2017-12-31T06:59:08.675Z,11.40
2017-12-31T07:01:37.015Z,11.50
2017-12-31T07:04:06.036Z,11.50
2017-12-31T07:06:34.363Z,11.40
2017-12-31T07:09:02.756Z,11.40
2017-12-31T07:11:31.844Z,11.40
2017-12-31T07:14:00.188Z,11.40
2017-12-31T07:16:28.528Z,11.50
2017-12-31T07:18:57.619Z,11.40
2017-12-31T07:21:25.951Z,11.40
2017-12-31T07:23:54.336Z,11.40
2017-12-31T07:26:23.465Z,11.40
2017-12-31T07:28:52.568Z,11.40
2017-12-31T07:31:21.655Z,11.40
2017-12-31T07:33:50.780Z,11.50
2017-12-31T07:36:19.123Z,11.40
2017-12-31T07:38:47.466Z,11.50
2017-12-31T07:41:17.541Z,11.40
2017-12-31T07:43:45.886Z,11.50
2017-12-31T07:46:14.200Z,11.40
2017-12-31T07:48:43.313Z,11.40
2017-12-31T07:51:11.666Z,11.40
2017-12-31T07:53:40.776Z,11.40
2017-12-31T07:56:09.899Z,11.40
2017-12-31T07:58:38.239Z,11.40
2017-12-31T08:01:06.574Z,11.40
2017-12-31T08:03:34.932Z,11.30
2017-12-31T08:06:03.249Z,11.40
2017-12-31T08:08:31.596Z,11.40
2017-12-31T08:10:59.956Z,11.40
2017-12-31T08:13:28.319Z,11.40
2017-12-31T08:15:57.466Z,11.30
2017-12-31T08:18:25.824Z,11.30
2017-12-31T08:20:54.148Z,11.30
2017-12-31T08:23:22.495Z,11.40
2017-12-31T08:25:50.815Z,11.40
2017-12-31T08:28:20.531Z,11.40
2017-12-31T08:30:49.627Z,11.30
2017-12-31T08:33:18.746Z,11.30
2017-12-31T08:35:47.059Z,11.30
2017-12-31T08:38:15.466Z,11.20
2017-12-31T08:40:43.765Z,11.20
2017-12-31T08:43:12.865Z,11.30
2017-12-31T08:45:41.989Z,11.40
2017-12-31T08:48:10.333Z,11.30
2017-12-31T08:50:39.427Z,11.30
2017-12-31T08:53:07.771Z,11.30
2017-12-31T08:55:36.097Z,11.30
2017-12-31T08:58:05.193Z,11.30
2017-12-31T09:03:34.628Z,11.30
2017-12-31T09:06:02.955Z,11.30
2017-12-31T09:08:31.309Z,11.30
2017-12-31T09:10:59.627Z,11.20
2017-12-31T09:13:28.760Z,11.30
2017-12-31T09:15:57.094Z,11.30
2017-12-31T09:18:25.451Z,11.40
2017-12-31T09:20:53.792Z,11.40
2017-12-31T09:23:22.879Z,11.50
2017-12-31T09:25:51.984Z,11.60
2017-12-31T09:28:21.059Z,11.70
2017-12-31T09:30:50.889Z,11.90
2017-12-31T09:33:19.974Z,11.80
2017-12-31T09:35:48.317Z,11.80
2017-12-31T09:38:16.634Z,11.80
2017-12-31T09:40:44.992Z,11.90
2017-12-31T09:43:13.312Z,11.90
2017-12-31T09:45:41.631Z,12.00
2017-12-31T09:48:09.964Z,11.90
2017-12-31T09:50:39.068Z,11.90
2017-12-31T09:53:07.405Z,11.90
2017-12-31T09:55:36.221Z,11.90
2017-12-31T09:58:05.328Z,12.00
2017-12-31T10:00:34.422Z,11.90
2017-12-31T10:03:02.779Z,11.90
2017-12-31T10:05:31.113Z,11.90
2017-12-31T10:07:59.480Z,11.90
2017-12-31T10:10:28.664Z,11.90
2017-12-31T10:12:57.745Z,11.80
2017-12-31T10:15:26.868Z,11.80
2017-12-31T10:17:55.172Z,11.80
2017-12-31T10:20:23.506Z,11.80
2017-12-31T10:22:52.585Z,11.70
2017-12-31T10:25:20.917Z,11.70
2017-12-31T10:27:49.228Z,11.70
2017-12-31T10:30:17.559Z,11.70
2017-12-31T10:32:45.873Z,11.70
2017-12-31T10:35:14.204Z,11.70
2017-12-31T10:37:43.283Z,11.80
2017-12-31T10:40:11.598Z,11.80
2017-12-31T10:42:39.942Z,11.70
2017-12-31T10:45:09.039Z,11.60
2017-12-31T10:47:38.133Z,11.60
2017-12-31T10:50:06.448Z,11.60
2017-12-31T10:55:35.391Z,11.70
2017-12-31T10:58:03.730Z,11.70
2017-12-31T11:00:36.919Z,11.80
2017-12-31T11:03:05.292Z,11.80
2017-12-31T11:05:34.362Z,11.70
2017-12-31T11:08:02.701Z,11.70
2017-12-31T11:10:31.015Z,11.70
2017-12-31T11:12:59.351Z,11.70
2017-12-31T11:15:27.684Z,11.70
2017-12-31T11:17:56.016Z,11.80
2017-12-31T11:20:25.100Z,12.00
2017-12-31T11:22:53.410Z,12.00
2017-12-31T11:25:21.737Z,12.10
2017-12-31T11:27:50.081Z,12.20
2017-12-31T11:30:18.423Z,12.10
2017-12-31T11:32:46.720Z,12.20
2017-12-31T11:35:15.051Z,12.20
2017-12-31T11:37:43.363Z,12.20
2017-12-31T11:40:11.702Z,12.20
2017-12-31T11:42:40.784Z,12.20
2017-12-31T11:45:09.105Z,12.20
2017-12-31T11:47:37.422Z,12.20
2017-12-31T11:50:05.755Z,12.20
2017-12-31T11:52:34.823Z,12.40
2017-12-31T11:55:04.075Z,12.40
2017-12-31T11:57:32.385Z,12.50
2017-12-31T12:00:00.697Z,12.70
2017-12-31T12:02:29.019Z,12.70
2017-12-31T12:04:57.331Z,12.70
2017-12-31T12:07:26.439Z,12.60
2017-12-31T12:09:54.779Z,12.50
2017-12-31T12:12:23.135Z,12.60
2017-12-31T12:14:51.480Z,12.50
2017-12-31T12:17:19.846Z,12.40
2017-12-31T12:19:48.910Z,12.40
2017-12-31T12:22:17.247Z,12.40
2017-12-31T12:24:45.555Z,12.30
2017-12-31T12:27:13.893Z,12.20
2017-12-31T12:29:42.230Z,12.30
2017-12-31T12:32:10.535Z,12.30
2017-12-31T12:34:38.862Z,12.20
2017-12-31T12:37:07.216Z,12.20
2017-12-31T12:39:35.540Z,12.20
2017-12-31T12:42:04.606Z,12.20
2017-12-31T12:44:32.977Z,12.20
2017-12-31T12:47:01.319Z,12.20
2017-12-31T12:49:30.435Z,12.20
2017-12-31T12:51:58.754Z,12.20
2017-12-31T12:54:27.104Z,12.20
2017-12-31T12:56:55.432Z,12.30
2017-12-31T12:59:23.743Z,12.30
2017-12-31T13:01:52.866Z,12.30
2017-12-31T13:04:22.013Z,12.40
2017-12-31T13:06:50.339Z,12.30
2017-12-31T13:09:18.660Z,12.50
2017-12-31T13:11:47.159Z,12.60
2017-12-31T13:14:15.479Z,12.50
2017-12-31T13:16:43.818Z,12.50
2017-12-31T13:19:12.118Z,12.50
2017-12-31T13:21:40.501Z,12.50
2017-12-31T13:24:08.845Z,12.50
2017-12-31T13:26:37.657Z,12.40
2017-12-31T13:29:06.743Z,12.50
2017-12-31T13:31:35.828Z,12.40
2017-12-31T13:34:04.162Z,12.50
2017-12-31T13:36:32.469Z,12.50
2017-12-31T13:39:00.802Z,12.40
2017-12-31T13:41:29.175Z,12.50
2017-12-31T13:43:57.509Z,12.40
2017-12-31T13:46:25.822Z,12.40
2017-12-31T13:48:54.926Z,12.40
2017-12-31T13:51:23.999Z,12.40
2017-12-31T13:53:52.309Z,12.40
2017-12-31T13:56:20.647Z,12.40
2017-12-31T13:58:49.050Z,12.50
2017-12-31T14:01:18.196Z,12.50
2017-12-31T14:03:46.551Z,12.50
2017-12-31T14:06:14.900Z,12.50
2017-12-31T14:08:43.974Z,12.50
2017-12-31T14:11:12.291Z,12.50
2017-12-31T14:13:40.645Z,12.40
2017-12-31T14:16:09.031Z,12.40
2017-12-31T14:18:37.354Z,12.50
2017-12-31T14:21:05.717Z,12.40
2017-12-31T14:23:34.039Z,12.40
2017-12-31T14:26:02.342Z,12.40
2017-12-31T14:28:30.673Z,12.40
2017-12-31T14:30:58.986Z,12.40
2017-12-31T14:33:27.302Z,12.40
2017-12-31T14:35:55.621Z,12.40
2017-12-31T14:38:23.952Z,12.40
2017-12-31T14:40:53.054Z,12.30
2017-12-31T14:43:21.376Z,12.30
2017-12-31T14:45:49.681Z,12.30
2017-12-31T14:48:17.979Z,12.20
2017-12-31T14:50:47.079Z,12.30
2017-12-31T14:53:16.145Z,12.10
2017-12-31T14:55:44.489Z,12.10
2017-12-31T14:58:12.799Z,12.10
2017-12-31T15:00:41.181Z,12.00
2017-12-31T15:03:09.543Z,12.00
2017-12-31T15:05:37.843Z,12.00
2017-12-31T15:08:06.194Z,12.00
2017-12-31T15:10:34.507Z,11.90
2017-12-31T15:13:02.825Z,11.90
2017-12-31T15:15:31.164Z,11.80
2017-12-31T15:18:06.821Z,11.90
2017-12-31T15:20:35.165Z,11.80
2017-12-31T15:23:03.478Z,11.70
2017-12-31T15:25:31.769Z,11.80
2017-12-31T15:28:00.901Z,11.70
2017-12-31T15:30:29.197Z,11.70
2017-12-31T15:32:57.554Z,11.80
2017-12-31T15:35:25.894Z,11.70
2017-12-31T15:37:55.038Z,11.70
2017-12-31T15:40:23.343Z,11.70
2017-12-31T15:42:51.675Z,11.60
2017-12-31T15:45:20.023Z,11.60
2017-12-31T15:47:49.119Z,11.60
2017-12-31T15:50:17.469Z,11.60
2017-12-31T15:52:45.816Z,11.60
2017-12-31T15:55:14.127Z,11.60
2017-12-31T15:57:42.478Z,11.60
2017-12-31T16:00:10.832Z,11.60
2017-12-31T16:02:39.944Z,11.50
2017-12-31T16:05:08.260Z,11.50
2017-12-31T16:07:36.580Z,11.50
2017-12-31T16:10:05.661Z,11.60
2017-12-31T16:12:33.970Z,11.60
2017-12-31T16:15:02.299Z,11.60
2017-12-31T16:17:30.668Z,11.60
2017-12-31T16:19:59.002Z,11.50
2017-12-31T16:22:27.307Z,11.40
2017-12-31T16:24:55.685Z,11.30
2017-12-31T16:27:23.998Z,11.30
2017-12-31T16:29:52.297Z,11.20
2017-12-31T16:32:20.620Z,11.20
2017-12-31T16:34:48.926Z,11.20
2017-12-31T16:37:17.260Z,11.20
2017-12-31T16:39:45.601Z,11.20
2017-12-31T16:42:13.929Z,11.20
2017-12-31T16:44:42.288Z,11.20
2017-12-31T16:47:10.614Z,11.20
2017-12-31T16:49:38.991Z,11.20
2017-12-31T16:52:07.313Z,11.20
2017-12-31T16:54:35.620Z,11.10
2017-12-31T16:57:03.954Z,11.00
2017-12-31T16:59:32.312Z,11.00
2017-12-31T17:02:00.633Z,11.00
2017-12-31T17:04:33.284Z,11.00
2017-12-31T17:07:01.616Z,11.00
2017-12-31T17:09:29.923Z,10.90
2017-12-31T17:11:58.276Z,11.00
2017-12-31T17:14:26.604Z,10.80
2017-12-31T17:16:54.914Z,10.80
2017-12-31T17:19:23.297Z,11.00
2017-12-31T17:21:51.596Z,10.90
2017-12-31T17:24:19.925Z,10.90
2017-12-31T17:26:48.225Z,11.00
2017-12-31T17:29:16.623Z,11.00
2017-12-31T17:31:44.976Z,11.10
2017-12-31T17:34:14.054Z,11.00
2017-12-31T17:36:42.395Z,11.00
2017-12-31T17:39:10.728Z,11.00
2017-12-31T17:41:39.794Z,10.90
2017-12-31T17:44:08.096Z,10.90
2017-12-31T17:46:37.188Z,10.80
2017-12-31T17:49:06.302Z,10.70
2017-12-31T17:51:34.661Z,10.70
2017-12-31T17:54:02.998Z,10.60
2017-12-31T17:56:31.318Z,10.60
2017-12-31T17:58:59.648Z,10.60
2017-12-31T18:01:28.013Z,10.50
2017-12-31T18:03:56.370Z,10.40
2017-12-31T18:06:25.524Z,10.40
2017-12-31T18:08:53.824Z,10.40
2017-12-31T18:11:22.211Z,10.30
2017-12-31T18:13:51.325Z,10.20
2017-12-31T18:16:20.434Z,10.20
2017-12-31T18:18:48.752Z,10.20
2017-12-31T18:21:17.064Z,10.20
2017-12-31T18:23:46.151Z,10.20
2017-12-31T18:26:14.444Z,10.10
2017-12-31T18:28:43.528Z,10.20
2017-12-31T18:31:11.840Z,10.10
2017-12-31T18:33:40.220Z,10.10
2017-12-31T18:36:08.527Z,10.10
2017-12-31T18:38:36.898Z,10.10
2017-12-31T18:41:05.211Z,10.00
2017-12-31T18:43:33.521Z,10.00
2017-12-31T18:46:02.617Z,10.00
2017-12-31T18:48:30.959Z,10.00
2017-12-31T18:50:59.284Z,10.00
2017-12-31T18:53:27.641Z,10.00
2017-12-31T18:55:56.765Z,9.90
2017-12-31T18:58:25.158Z,9.90
2017-12-31T19:00:53.503Z,10.00
2017-12-31T19:03:22.573Z,10.00
2017-12-31T19:05:50.899Z,10.00
2017-12-31T19:08:19.894Z,10.00
2017-12-31T19:10:48.205Z,10.10
2017-12-31T19:13:16.587Z,10.10
2017-12-31T19:15:44.902Z,10.00
2017-12-31T19:18:13.988Z,9.80
2017-12-31T19:20:42.347Z,9.80
2017-12-31T19:23:10.665Z,9.80
2017-12-31T19:25:39.723Z,9.80
2017-12-31T19:28:08.089Z,9.80
2017-12-31T19:30:36.383Z,9.80
2017-12-31T19:33:04.699Z,9.80
2017-12-31T19:35:33.776Z,9.70
2017-12-31T19:38:02.123Z,9.70
2017-12-31T19:40:30.536Z,9.70
2017-12-31T19:42:58.879Z,9.70
2017-12-31T19:45:27.239Z,9.60
2017-12-31T19:47:55.571Z,9.50
2017-12-31T19:50:23.942Z,9.50
2017-12-31T19:52:52.242Z,9.60
2017-12-31T19:55:21.335Z,9.50
2017-12-31T19:57:50.437Z,9.50
2017-12-31T20:00:19.566Z,9.50
2017-12-31T20:02:47.902Z,9.50
2017-12-31T20:05:16.280Z,9.40
2017-12-31T20:07:44.622Z,9.60
2017-12-31T20:10:12.903Z,9.60
2017-12-31T20:12:41.227Z,9.70
2017-12-31T20:15:10.337Z,9.80
2017-12-31T20:17:38.683Z,9.80
2017-12-31T20:20:06.981Z,9.70
2017-12-31T20:22:35.361Z,9.70
2017-12-31T20:25:04.487Z,9.60
2017-12-31T20:27:32.801Z,9.60
2017-12-31T20:30:01.145Z,9.70
2017-12-31T20:32:29.463Z,9.60
2017-12-31T20:34:57.763Z,9.60
2017-12-31T20:37:26.148Z,9.50
2017-12-31T20:39:55.208Z,9.30
2017-12-31T20:42:23.564Z,9.30
2017-12-31T20:44:51.892Z,9.30
2017-12-31T20:47:20.240Z,9.30
2017-12-31T20:49:48.551Z,9.30
2017-12-31T20:52:17.618Z,9.30
2017-12-31T20:54:45.998Z,9.20
2017-12-31T20:57:14.329Z,9.30
2017-12-31T20:59:42.704Z,9.20
2017-12-31T21:02:11.056Z,9.20
2017-12-31T21:04:40.205Z,9.20
2017-12-31T21:07:08.565Z,9.10
2017-12-31T21:09:36.971Z,9.20
2017-12-31T21:12:05.324Z,9.10
2017-12-31T21:14:33.629Z,9.20
2017-12-31T21:17:01.948Z,9.10
2017-12-31T21:19:30.297Z,9.20
2017-12-31T21:21:58.613Z,9.10
2017-12-31T21:24:26.909Z,9.10
2017-12-31T21:26:56.005Z,9.10
2017-12-31T21:29:25.079Z,9.10
2017-12-31T21:31:53.453Z,9.10
2017-12-31T21:34:21.789Z,9.10
2017-12-31T21:36:50.108Z,9.10
2017-12-31T21:39:18.448Z,9.10
2017-12-31T21:41:46.812Z,9.10
2017-12-31T21:44:15.137Z,9.10
2017-12-31T21:46:43.430Z,9.10
2017-12-31T21:49:11.793Z,9.10
2017-12-31T21:51:40.136Z,9.10
2017-12-31T21:54:08.500Z,9.10
2017-12-31T21:56:36.829Z,9.10
2017-12-31T21:59:05.143Z,9.10
2017-12-31T22:01:33.454Z,9.20
2017-12-31T22:04:01.785Z,9.20
2017-12-31T22:06:30.084Z,9.20
2017-12-31T22:08:58.466Z,9.10
2017-12-31T22:11:26.804Z,9.20
2017-12-31T22:13:55.157Z,9.30
2017-12-31T22:16:23.519Z,9.20
2017-12-31T22:18:51.805Z,9.30
2017-12-31T22:21:20.162Z,9.30
2017-12-31T22:23:48.531Z,9.40
2017-12-31T22:26:17.660Z,9.50
2017-12-31T22:28:45.959Z,9.50
2017-12-31T22:31:14.335Z,9.60
2017-12-31T22:33:42.690Z,9.70
2017-12-31T22:36:11.081Z,9.70
2017-12-31T22:38:39.379Z,9.80
2017-12-31T22:41:07.675Z,9.90
2017-12-31T22:43:36.042Z,9.90
2017-12-31T22:46:04.332Z,10.00
2017-12-31T22:48:33.486Z,10.00
2017-12-31T22:51:01.885Z,9.90
2017-12-31T22:53:30.256Z,10.10
2017-12-31T22:55:59.363Z,10.00
2017-12-31T22:58:27.748Z,10.00
2017-12-31T23:00:56.052Z,10.00
2017-12-31T23:03:25.182Z,9.90
2017-12-31T23:05:53.562Z,9.90
2017-12-31T23:08:22.604Z,9.80
2017-12-31T23:13:24.425Z,9.70
2017-12-31T23:15:53.526Z,9.70
2017-12-31T23:18:21.826Z,9.70
2017-12-31T23:20:50.179Z,9.70
2017-12-31T23:23:19.241Z,9.70
2017-12-31T23:25:47.610Z,9.70
2017-12-31T23:28:16.700Z,9.60
2017-12-31T23:30:45.071Z,9.60
2017-12-31T23:33:13.396Z,9.70
2017-12-31T23:35:41.713Z,9.60
2017-12-31T23:38:10.029Z,9.60
2017-12-31T23:40:39.119Z,9.60
2017-12-31T23:43:07.437Z,9.60
2017-12-31T23:45:36.496Z,9.60
2017-12-31T23:48:04.815Z,9.60
2017-12-31T23:50:33.155Z,9.50
2017-12-31T23:53:01.490Z,9.50
2017-12-31T23:55:29.832Z,9.50
2017-12-31T23:57:58.197Z,9.50
